Terminal Aerodrome Forecast
Issued by NWS

Home | Current Version | Previous Version | Graphics & Text | Print | Product List | Glossary On
Versions: 1 2 3 4 5 6 7 8 9 10 11 12 13 14 15 16
000
FTUS43 KABR 271727
TAFPIR
TAF
KPIR 271727Z 2718/2818 00000KT P6SM -SHRA FEW060 BKN070 OVC090
     FM280200 VRB06KT P6SM SCT200
     FM280900 36006KT P6SM VCSH BKN070 OVC100
     FM281500 35008KT P6SM VCTS BKN050CB BKN100=

USA.gov is the U.S. government's official web portal to all federal, state and local government web resources and services.